Miles, Iowa
Current Conditions -  °F | °C
As of 2:55 PM on Tuesday 21 Oct 2014 (Local Time) from KSFY Reporting Station
Clear Clear  
Wind Chill: 58°   Ceiling: Unl
Heat Index: 58°   Visibility: 10mi
Dew Point: 37°   Wind: 10mph
Humidity: 45%   Direction: 40°NE
Pressure: 30.18"   Gusts: NA
Location:  42.05°N, 90.32°W
Report Text: KSFY 211955Z AUTO 04009KT 10SM CLR 15/03 A3018 RMK AO2 T01450027
Loading
Personal Weather Stations






























Interactive Weather Map
Tropical Storm Tracking
New forecast layout! Learn more

10-Day Weather Forecast

Advertisements
Track Severe Weather on mobile